sensor_id;sensor_type;location;lat;lon;timestamp;temperature;humidity
28484;DHT22;15704;48.834;8.736;2023-05-10T00:01:27;11.60;99.90
28484;DHT22;15704;48.834;8.736;2023-05-10T00:03:53;11.70;99.90
28484;DHT22;15704;48.834;8.736;2023-05-10T00:06:20;11.70;99.90
28484;DHT22;15704;48.834;8.736;2023-05-10T00:08:47;11.60;99.90
28484;DHT22;15704;48.834;8.736;2023-05-10T00:11:14;11.70;99.90
28484;DHT22;15704;48.834;8.736;2023-05-10T00:13:40;11.60;99.90
28484;DHT22;15704;48.834;8.736;2023-05-10T00:16:07;11.60;99.90
28484;DHT22;15704;48.834;8.736;2023-05-10T00:18:34;11.50;99.90
28484;DHT22;15704;48.834;8.736;2023-05-10T00:21:01;11.60;99.90
28484;DHT22;15704;48.834;8.736;2023-05-10T00:23:28;11.60;99.90
28484;DHT22;15704;48.834;8.736;2023-05-10T00:25:54;11.60;99.90
28484;DHT22;15704;48.834;8.736;2023-05-10T00:28:21;11.60;99.90
28484;DHT22;15704;48.834;8.736;2023-05-10T00:30:48;11.70;99.90
28484;DHT22;15704;48.834;8.736;2023-05-10T00:33:14;11.60;99.90
28484;DHT22;15704;48.834;8.736;2023-05-10T00:35:41;11.60;99.90
28484;DHT22;15704;48.834;8.736;2023-05-10T00:38:08;11.60;99.90
28484;DHT22;15704;48.834;8.736;2023-05-10T00:40:36;11.60;99.90
28484;DHT22;15704;48.834;8.736;2023-05-10T00:43:03;11.60;99.90
28484;DHT22;15704;48.834;8.736;2023-05-10T00:45:32;11.60;99.90
28484;DHT22;15704;48.834;8.736;2023-05-10T00:48:01;11.50;99.90
28484;DHT22;15704;48.834;8.736;2023-05-10T00:50:29;11.40;99.90
28484;DHT22;15704;48.834;8.736;2023-05-10T00:52:56;11.50;99.90
28484;DHT22;15704;48.834;8.736;2023-05-10T00:55:23;11.50;99.90
28484;DHT22;15704;48.834;8.736;2023-05-10T00:57:50;11.50;99.90
28484;DHT22;15704;48.834;8.736;2023-05-10T01:00:17;11.40;99.90
28484;DHT22;15704;48.834;8.736;2023-05-10T01:02:45;11.50;99.90
28484;DHT22;15704;48.834;8.736;2023-05-10T01:05:13;11.50;99.90
28484;DHT22;15704;48.834;8.736;2023-05-10T01:07:40;11.40;99.90
28484;DHT22;15704;48.834;8.736;2023-05-10T01:10:08;11.40;99.90
28484;DHT22;15704;48.834;8.736;2023-05-10T01:12:40;11.40;99.90
28484;DHT22;15704;48.834;8.736;2023-05-10T01:15:08;11.50;99.90
28484;DHT22;15704;48.834;8.736;2023-05-10T01:17:37;11.50;99.90
28484;DHT22;15704;48.834;8.736;2023-05-10T01:20:05;11.50;99.90
28484;DHT22;15704;48.834;8.736;2023-05-10T01:31:08;11.50;99.90
28484;DHT22;15704;48.834;8.736;2023-05-10T01:34:01;11.50;99.90
28484;DHT22;15704;48.834;8.736;2023-05-10T01:36:54;11.50;99.90
28484;DHT22;15704;48.834;8.736;2023-05-10T01:39:32;11.40;99.90
28484;DHT22;15704;48.834;8.736;2023-05-10T01:42:11;11.50;99.90
28484;DHT22;15704;48.834;8.736;2023-05-10T01:45:02;11.40;99.90
28484;DHT22;15704;48.834;8.736;2023-05-10T01:47:42;11.50;99.90
28484;DHT22;15704;48.834;8.736;2023-05-10T01:50:15;11.50;99.90
28484;DHT22;15704;48.834;8.736;2023-05-10T01:52:53;11.50;99.90
28484;DHT22;15704;48.834;8.736;2023-05-10T01:55:24;11.40;99.90
28484;DHT22;15704;48.834;8.736;2023-05-10T01:57:58;11.40;99.90
28484;DHT22;15704;48.834;8.736;2023-05-10T02:00:27;11.40;99.90
28484;DHT22;15704;48.834;8.736;2023-05-10T02:02:55;11.50;99.90
28484;DHT22;15704;48.834;8.736;2023-05-10T02:05:23;11.40;99.90
28484;DHT22;15704;48.834;8.736;2023-05-10T02:07:51;11.40;99.90
28484;DHT22;15704;48.834;8.736;2023-05-10T02:10:18;11.40;99.90
28484;DHT22;15704;48.834;8.736;2023-05-10T02:12:47;11.50;99.90
28484;DHT22;15704;48.834;8.736;2023-05-10T02:15:18;11.50;99.90
28484;DHT22;15704;48.834;8.736;2023-05-10T02:17:46;11.50;99.90
28484;DHT22;15704;48.834;8.736;2023-05-10T02:20:14;11.50;99.90
28484;DHT22;15704;48.834;8.736;2023-05-10T02:22:42;11.50;99.90
28484;DHT22;15704;48.834;8.736;2023-05-10T02:25:13;11.50;99.90
28484;DHT22;15704;48.834;8.736;2023-05-10T02:27:42;11.60;99.90
28484;DHT22;15704;48.834;8.736;2023-05-10T02:30:10;11.60;99.90
28484;DHT22;15704;48.834;8.736;2023-05-10T02:32:38;11.70;99.90
28484;DHT22;15704;48.834;8.736;2023-05-10T02:35:06;11.70;99.90
28484;DHT22;15704;48.834;8.736;2023-05-10T02:37:34;11.70;99.90
28484;DHT22;15704;48.834;8.736;2023-05-10T02:40:02;11.60;99.90
28484;DHT22;15704;48.834;8.736;2023-05-10T02:42:32;11.60;99.90
28484;DHT22;15704;48.834;8.736;2023-05-10T02:45:01;11.60;99.90
28484;DHT22;15704;48.834;8.736;2023-05-10T02:47:31;11.60;99.90
28484;DHT22;15704;48.834;8.736;2023-05-10T02:49:58;11.60;99.90
28484;DHT22;15704;48.834;8.736;2023-05-10T02:52:28;11.60;99.90
28484;DHT22;15704;48.834;8.736;2023-05-10T02:55:00;11.60;99.90
28484;DHT22;15704;48.834;8.736;2023-05-10T02:57:29;11.60;99.90
28484;DHT22;15704;48.834;8.736;2023-05-10T02:59:58;11.70;99.90
28484;DHT22;15704;48.834;8.736;2023-05-10T03:02:26;11.70;99.90
28484;DHT22;15704;48.834;8.736;2023-05-10T03:04:53;11.70;99.90
28484;DHT22;15704;48.834;8.736;2023-05-10T03:07:20;11.70;99.90
28484;DHT22;15704;48.834;8.736;2023-05-10T03:09:50;11.70;99.90
28484;DHT22;15704;48.834;8.736;2023-05-10T03:12:49;11.70;99.90
28484;DHT22;15704;48.834;8.736;2023-05-10T03:15:31;11.70;99.90
28484;DHT22;15704;48.834;8.736;2023-05-10T03:18:15;11.80;99.90
28484;DHT22;15704;48.834;8.736;2023-05-10T03:20:47;11.70;99.90
28484;DHT22;15704;48.834;8.736;2023-05-10T03:25:47;11.80;99.90
28484;DHT22;15704;48.834;8.736;2023-05-10T03:28:15;11.70;99.90
28484;DHT22;15704;48.834;8.736;2023-05-10T03:30:43;11.70;99.90
28484;DHT22;15704;48.834;8.736;2023-05-10T03:33:11;11.70;99.90
28484;DHT22;15704;48.834;8.736;2023-05-10T03:35:39;11.70;99.90
28484;DHT22;15704;48.834;8.736;2023-05-10T03:38:06;11.70;99.90
28484;DHT22;15704;48.834;8.736;2023-05-10T03:40:32;11.60;99.90
28484;DHT22;15704;48.834;8.736;2023-05-10T03:42:59;11.70;99.90
28484;DHT22;15704;48.834;8.736;2023-05-10T03:45:26;11.60;99.90
28484;DHT22;15704;48.834;8.736;2023-05-10T03:47:53;11.60;99.90
28484;DHT22;15704;48.834;8.736;2023-05-10T03:50:20;11.60;99.90
28484;DHT22;15704;48.834;8.736;2023-05-10T03:52:47;11.60;99.90
28484;DHT22;15704;48.834;8.736;2023-05-10T03:55:14;11.60;99.90
28484;DHT22;15704;48.834;8.736;2023-05-10T03:57:41;11.60;99.90
28484;DHT22;15704;48.834;8.736;2023-05-10T04:00:09;11.60;99.90
28484;DHT22;15704;48.834;8.736;2023-05-10T04:02:36;11.60;99.90
28484;DHT22;15704;48.834;8.736;2023-05-10T04:05:04;11.60;99.90
28484;DHT22;15704;48.834;8.736;2023-05-10T04:07:31;11.60;99.90
28484;DHT22;15704;48.834;8.736;2023-05-10T04:09:57;11.60;99.90
28484;DHT22;15704;48.834;8.736;2023-05-10T04:12:24;11.60;99.90
28484;DHT22;15704;48.834;8.736;2023-05-10T04:14:51;11.50;99.90
28484;DHT22;15704;48.834;8.736;2023-05-10T04:17:17;11.60;99.90
28484;DHT22;15704;48.834;8.736;2023-05-10T04:19:44;11.50;99.90
28484;DHT22;15704;48.834;8.736;2023-05-10T04:22:11;11.50;99.90
28484;DHT22;15704;48.834;8.736;2023-05-10T04:24:37;11.50;99.90
28484;DHT22;15704;48.834;8.736;2023-05-10T04:27:05;11.60;99.90
28484;DHT22;15704;48.834;8.736;2023-05-10T04:29:32;11.50;99.90
28484;DHT22;15704;48.834;8.736;2023-05-10T04:31:59;11.50;99.90
28484;DHT22;15704;48.834;8.736;2023-05-10T04:34:25;11.60;99.90
28484;DHT22;15704;48.834;8.736;2023-05-10T04:36:52;11.70;99.90
28484;DHT22;15704;48.834;8.736;2023-05-10T04:39:19;11.70;99.90
28484;DHT22;15704;48.834;8.736;2023-05-10T04:41:45;11.70;99.90
28484;DHT22;15704;48.834;8.736;2023-05-10T04:44:12;11.70;99.90
28484;DHT22;15704;48.834;8.736;2023-05-10T04:46:39;11.70;99.90
28484;DHT22;15704;48.834;8.736;2023-05-10T04:49:06;11.70;99.90
28484;DHT22;15704;48.834;8.736;2023-05-10T04:51:32;11.70;99.90
28484;DHT22;15704;48.834;8.736;2023-05-10T04:53:59;11.70;99.90
28484;DHT22;15704;48.834;8.736;2023-05-10T04:56:32;11.70;99.90
28484;DHT22;15704;48.834;8.736;2023-05-10T04:58:59;11.80;99.90
28484;DHT22;15704;48.834;8.736;2023-05-10T05:01:26;11.80;99.90
28484;DHT22;15704;48.834;8.736;2023-05-10T05:03:52;11.90;99.90
28484;DHT22;15704;48.834;8.736;2023-05-10T05:06:19;12.00;99.90
28484;DHT22;15704;48.834;8.736;2023-05-10T05:08:47;12.00;99.90
28484;DHT22;15704;48.834;8.736;2023-05-10T05:11:16;12.00;99.90
28484;DHT22;15704;48.834;8.736;2023-05-10T05:13:43;11.90;99.90
28484;DHT22;15704;48.834;8.736;2023-05-10T05:16:10;11.90;99.90
28484;DHT22;15704;48.834;8.736;2023-05-10T05:18:38;11.80;99.90
28484;DHT22;15704;48.834;8.736;2023-05-10T05:21:14;11.90;99.90
28484;DHT22;15704;48.834;8.736;2023-05-10T05:23:41;11.90;99.90
28484;DHT22;15704;48.834;8.736;2023-05-10T05:26:08;11.90;99.90
28484;DHT22;15704;48.834;8.736;2023-05-10T05:28:35;11.90;99.90
28484;DHT22;15704;48.834;8.736;2023-05-10T05:31:07;12.00;99.90
28484;DHT22;15704;48.834;8.736;2023-05-10T05:33:36;12.00;99.90
28484;DHT22;15704;48.834;8.736;2023-05-10T05:36:04;12.10;99.90
28484;DHT22;15704;48.834;8.736;2023-05-10T05:38:32;12.20;99.90
28484;DHT22;15704;48.834;8.736;2023-05-10T05:40:58;12.20;99.90
28484;DHT22;15704;48.834;8.736;2023-05-10T05:43:25;12.10;99.90
28484;DHT22;15704;48.834;8.736;2023-05-10T05:45:53;12.10;99.90
28484;DHT22;15704;48.834;8.736;2023-05-10T05:48:20;12.20;99.90
28484;DHT22;15704;48.834;8.736;2023-05-10T05:50:47;12.10;99.90
28484;DHT22;15704;48.834;8.736;2023-05-10T05:53:14;12.10;99.90
28484;DHT22;15704;48.834;8.736;2023-05-10T05:55:50;12.20;99.90
28484;DHT22;15704;48.834;8.736;2023-05-10T05:58:17;12.30;99.90
28484;DHT22;15704;48.834;8.736;2023-05-10T06:00:43;12.40;99.90
28484;DHT22;15704;48.834;8.736;2023-05-10T06:03:10;12.50;99.90
28484;DHT22;15704;48.834;8.736;2023-05-10T06:05:37;12.60;99.90
28484;DHT22;15704;48.834;8.736;2023-05-10T06:08:04;12.70;99.90
28484;DHT22;15704;48.834;8.736;2023-05-10T06:10:30;12.60;99.90
28484;DHT22;15704;48.834;8.736;2023-05-10T06:12:57;12.70;99.90
28484;DHT22;15704;48.834;8.736;2023-05-10T06:15:24;12.80;99.90
28484;DHT22;15704;48.834;8.736;2023-05-10T06:17:51;12.80;99.90
28484;DHT22;15704;48.834;8.736;2023-05-10T06:20:18;13.10;99.90
28484;DHT22;15704;48.834;8.736;2023-05-10T06:22:45;13.30;99.90
28484;DHT22;15704;48.834;8.736;2023-05-10T06:25:12;13.30;99.90
28484;DHT22;15704;48.834;8.736;2023-05-10T06:27:38;13.30;99.90
28484;DHT22;15704;48.834;8.736;2023-05-10T06:30:05;13.70;99.90
28484;DHT22;15704;48.834;8.736;2023-05-10T06:32:39;13.60;99.90
28484;DHT22;15704;48.834;8.736;2023-05-10T06:35:06;13.70;99.90
28484;DHT22;15704;48.834;8.736;2023-05-10T06:37:33;13.90;99.90
28484;DHT22;15704;48.834;8.736;2023-05-10T06:40:00;13.80;99.90
28484;DHT22;15704;48.834;8.736;2023-05-10T06:42:28;14.00;99.90
28484;DHT22;15704;48.834;8.736;2023-05-10T06:44:54;14.20;99.90
28484;DHT22;15704;48.834;8.736;2023-05-10T06:47:21;14.20;99.90
28484;DHT22;15704;48.834;8.736;2023-05-10T06:49:48;14.40;99.90
28484;DHT22;15704;48.834;8.736;2023-05-10T06:52:15;14.70;99.90
28484;DHT22;15704;48.834;8.736;2023-05-10T06:54:41;15.00;99.90
28484;DHT22;15704;48.834;8.736;2023-05-10T06:57:08;14.80;99.90
28484;DHT22;15704;48.834;8.736;2023-05-10T06:59:55;14.90;99.90
28484;DHT22;15704;48.834;8.736;2023-05-10T07:02:22;14.70;99.90
28484;DHT22;15704;48.834;8.736;2023-05-10T07:04:49;14.90;99.90
28484;DHT22;15704;48.834;8.736;2023-05-10T07:07:18;14.90;99.90
28484;DHT22;15704;48.834;8.736;2023-05-10T07:09:45;14.70;99.90
28484;DHT22;15704;48.834;8.736;2023-05-10T07:12:12;14.50;99.90
28484;DHT22;15704;48.834;8.736;2023-05-10T07:14:41;14.20;99.90
28484;DHT22;15704;48.834;8.736;2023-05-10T07:17:08;14.20;99.90
28484;DHT22;15704;48.834;8.736;2023-05-10T07:19:35;14.40;99.90
28484;DHT22;15704;48.834;8.736;2023-05-10T07:22:02;14.40;99.90
28484;DHT22;15704;48.834;8.736;2023-05-10T07:24:29;14.40;99.90
28484;DHT22;15704;48.834;8.736;2023-05-10T07:26:57;14.40;99.90
28484;DHT22;15704;48.834;8.736;2023-05-10T07:29:24;14.50;99.90
28484;DHT22;15704;48.834;8.736;2023-05-10T07:31:51;14.70;99.90
28484;DHT22;15704;48.834;8.736;2023-05-10T07:34:17;14.60;99.90
28484;DHT22;15704;48.834;8.736;2023-05-10T07:36:44;14.50;99.90
28484;DHT22;15704;48.834;8.736;2023-05-10T07:39:11;14.40;99.90
28484;DHT22;15704;48.834;8.736;2023-05-10T07:41:46;14.60;99.90
28484;DHT22;15704;48.834;8.736;2023-05-10T07:44:13;14.70;99.90
28484;DHT22;15704;48.834;8.736;2023-05-10T07:46:40;14.70;99.90
28484;DHT22;15704;48.834;8.736;2023-05-10T07:49:07;14.70;99.90
28484;DHT22;15704;48.834;8.736;2023-05-10T07:51:33;15.10;99.90
28484;DHT22;15704;48.834;8.736;2023-05-10T07:54:00;14.90;99.90
28484;DHT22;15704;48.834;8.736;2023-05-10T07:56:30;15.40;99.90
28484;DHT22;15704;48.834;8.736;2023-05-10T07:58:59;15.70;99.90
28484;DHT22;15704;48.834;8.736;2023-05-10T08:01:26;15.40;99.90
28484;DHT22;15704;48.834;8.736;2023-05-10T08:03:53;15.20;99.90
28484;DHT22;15704;48.834;8.736;2023-05-10T08:06:20;15.10;99.90
28484;DHT22;15704;48.834;8.736;2023-05-10T08:08:48;15.00;99.90
28484;DHT22;15704;48.834;8.736;2023-05-10T08:11:20;15.10;99.90
28484;DHT22;15704;48.834;8.736;2023-05-10T08:13:48;15.30;99.90
28484;DHT22;15704;48.834;8.736;2023-05-10T08:16:16;15.10;99.90
28484;DHT22;15704;48.834;8.736;2023-05-10T08:18:44;15.30;99.90
28484;DHT22;15704;48.834;8.736;2023-05-10T08:21:14;14.90;99.90
28484;DHT22;15704;48.834;8.736;2023-05-10T08:23:41;14.70;99.90
28484;DHT22;15704;48.834;8.736;2023-05-10T08:26:07;14.60;99.90
28484;DHT22;15704;48.834;8.736;2023-05-10T08:28:34;14.40;99.90
28484;DHT22;15704;48.834;8.736;2023-05-10T08:31:01;14.30;99.90
28484;DHT22;15704;48.834;8.736;2023-05-10T08:33:28;14.40;99.90
28484;DHT22;15704;48.834;8.736;2023-05-10T08:35:54;14.40;99.90
28484;DHT22;15704;48.834;8.736;2023-05-10T08:38:21;14.40;99.90
28484;DHT22;15704;48.834;8.736;2023-05-10T08:40:49;14.50;99.90
28484;DHT22;15704;48.834;8.736;2023-05-10T08:43:17;14.80;99.90
28484;DHT22;15704;48.834;8.736;2023-05-10T08:45:45;14.90;99.90
28484;DHT22;15704;48.834;8.736;2023-05-10T08:48:14;14.60;99.90
28484;DHT22;15704;48.834;8.736;2023-05-10T08:50:41;14.50;99.90
28484;DHT22;15704;48.834;8.736;2023-05-10T08:53:11;14.20;99.90
28484;DHT22;15704;48.834;8.736;2023-05-10T08:55:38;13.80;99.90
28484;DHT22;15704;48.834;8.736;2023-05-10T08:58:06;14.00;99.90
28484;DHT22;15704;48.834;8.736;2023-05-10T09:00:34;14.00;99.90
28484;DHT22;15704;48.834;8.736;2023-05-10T09:03:03;13.90;99.90
28484;DHT22;15704;48.834;8.736;2023-05-10T09:05:30;13.80;99.90
28484;DHT22;15704;48.834;8.736;2023-05-10T09:07:57;13.90;99.90
28484;DHT22;15704;48.834;8.736;2023-05-10T09:10:27;14.20;99.90
28484;DHT22;15704;48.834;8.736;2023-05-10T09:12:59;14.70;99.90
28484;DHT22;15704;48.834;8.736;2023-05-10T09:15:25;14.90;99.90
28484;DHT22;15704;48.834;8.736;2023-05-10T09:17:52;15.30;99.90
28484;DHT22;15704;48.834;8.736;2023-05-10T09:20:20;15.90;99.90
28484;DHT22;15704;48.834;8.736;2023-05-10T09:22:47;15.80;99.90
28484;DHT22;15704;48.834;8.736;2023-05-10T09:25:16;16.00;99.90
28484;DHT22;15704;48.834;8.736;2023-05-10T09:27:47;15.70;99.90
28484;DHT22;15704;48.834;8.736;2023-05-10T09:30:24;15.60;99.90
28484;DHT22;15704;48.834;8.736;2023-05-10T09:32:51;15.10;99.90
28484;DHT22;15704;48.834;8.736;2023-05-10T09:35:20;14.80;99.90
28484;DHT22;15704;48.834;8.736;2023-05-10T09:37:49;14.90;99.90
28484;DHT22;15704;48.834;8.736;2023-05-10T09:40:23;14.90;99.90
28484;DHT22;15704;48.834;8.736;2023-05-10T09:45:18;14.50;99.90
28484;DHT22;15704;48.834;8.736;2023-05-10T09:47:45;14.30;99.90
28484;DHT22;15704;48.834;8.736;2023-05-10T09:50:12;14.50;99.90
28484;DHT22;15704;48.834;8.736;2023-05-10T09:52:47;14.50;99.90
28484;DHT22;15704;48.834;8.736;2023-05-10T09:55:15;14.20;99.90
28484;DHT22;15704;48.834;8.736;2023-05-10T09:57:42;14.20;99.90
28484;DHT22;15704;48.834;8.736;2023-05-10T10:00:09;14.00;99.90
28484;DHT22;15704;48.834;8.736;2023-05-10T10:02:36;13.80;99.90
28484;DHT22;15704;48.834;8.736;2023-05-10T10:05:05;13.70;99.90
28484;DHT22;15704;48.834;8.736;2023-05-10T10:07:33;13.80;99.90
28484;DHT22;15704;48.834;8.736;2023-05-10T10:10:00;13.70;99.90
28484;DHT22;15704;48.834;8.736;2023-05-10T10:12:27;13.80;99.90
28484;DHT22;15704;48.834;8.736;2023-05-10T10:14:55;13.90;99.90
28484;DHT22;15704;48.834;8.736;2023-05-10T10:17:24;14.10;99.90
28484;DHT22;15704;48.834;8.736;2023-05-10T10:19:53;14.00;99.90
28484;DHT22;15704;48.834;8.736;2023-05-10T10:22:20;14.70;99.90
28484;DHT22;15704;48.834;8.736;2023-05-10T10:24:48;14.70;99.90
28484;DHT22;15704;48.834;8.736;2023-05-10T10:27:28;14.70;99.90
28484;DHT22;15704;48.834;8.736;2023-05-10T10:30:06;15.10;99.90
28484;DHT22;15704;48.834;8.736;2023-05-10T10:35:22;15.70;99.90
28484;DHT22;15704;48.834;8.736;2023-05-10T10:37:50;15.80;99.90
28484;DHT22;15704;48.834;8.736;2023-05-10T10:40:27;16.00;99.90
28484;DHT22;15704;48.834;8.736;2023-05-10T10:42:54;16.50;99.90
28484;DHT22;15704;48.834;8.736;2023-05-10T10:45:23;15.90;99.90
28484;DHT22;15704;48.834;8.736;2023-05-10T10:50:44;16.40;99.90
28484;DHT22;15704;48.834;8.736;2023-05-10T10:53:12;16.00;99.90
28484;DHT22;15704;48.834;8.736;2023-05-10T10:55:48;16.40;99.90
28484;DHT22;15704;48.834;8.736;2023-05-10T10:58:31;16.20;99.90
28484;DHT22;15704;48.834;8.736;2023-05-10T11:01:16;15.60;99.90
28484;DHT22;15704;48.834;8.736;2023-05-10T11:06:32;15.40;99.90
28484;DHT22;15704;48.834;8.736;2023-05-10T11:09:09;15.40;99.90
28484;DHT22;15704;48.834;8.736;2023-05-10T11:11:48;15.20;99.90
28484;DHT22;15704;48.834;8.736;2023-05-10T11:14:20;15.20;99.90
28484;DHT22;15704;48.834;8.736;2023-05-10T11:16:47;15.00;99.90
28484;DHT22;15704;48.834;8.736;2023-05-10T11:19:16;14.90;99.90
28484;DHT22;15704;48.834;8.736;2023-05-10T11:22:12;14.60;99.90
28484;DHT22;15704;48.834;8.736;2023-05-10T11:24:37;14.70;99.90
28484;DHT22;15704;48.834;8.736;2023-05-10T11:27:04;14.60;99.90
28484;DHT22;15704;48.834;8.736;2023-05-10T11:29:30;14.80;99.90
28484;DHT22;15704;48.834;8.736;2023-05-10T11:31:58;14.80;99.90
28484;DHT22;15704;48.834;8.736;2023-05-10T11:34:30;14.90;99.90
28484;DHT22;15704;48.834;8.736;2023-05-10T11:36:57;15.20;99.90
28484;DHT22;15704;48.834;8.736;2023-05-10T11:39:29;15.20;99.90
28484;DHT22;15704;48.834;8.736;2023-05-10T11:41:56;15.30;99.90
28484;DHT22;15704;48.834;8.736;2023-05-10T11:44:28;15.40;99.90
28484;DHT22;15704;48.834;8.736;2023-05-10T11:47:01;15.40;99.90
28484;DHT22;15704;48.834;8.736;2023-05-10T11:49:28;15.60;99.90
28484;DHT22;15704;48.834;8.736;2023-05-10T11:52:07;15.90;99.90
28484;DHT22;15704;48.834;8.736;2023-05-10T11:54:34;16.10;99.90
28484;DHT22;15704;48.834;8.736;2023-05-10T11:57:03;16.10;99.90
28484;DHT22;15704;48.834;8.736;2023-05-10T11:59:30;16.30;99.90
28484;DHT22;15704;48.834;8.736;2023-05-10T12:01:57;16.00;99.90
28484;DHT22;15704;48.834;8.736;2023-05-10T12:04:24;16.00;99.90
28484;DHT22;15704;48.834;8.736;2023-05-10T12:06:52;15.10;99.90
28484;DHT22;15704;48.834;8.736;2023-05-10T12:09:18;15.00;99.90
28484;DHT22;15704;48.834;8.736;2023-05-10T12:12:05;14.90;99.90
28484;DHT22;15704;48.834;8.736;2023-05-10T12:14:34;15.10;99.90
28484;DHT22;15704;48.834;8.736;2023-05-10T12:17:01;15.20;99.90
28484;DHT22;15704;48.834;8.736;2023-05-10T12:19:28;15.50;99.90
28484;DHT22;15704;48.834;8.736;2023-05-10T12:22:05;15.70;99.90
28484;DHT22;15704;48.834;8.736;2023-05-10T12:24:34;16.00;99.90
28484;DHT22;15704;48.834;8.736;2023-05-10T12:27:05;16.10;99.90
28484;DHT22;15704;48.834;8.736;2023-05-10T12:29:34;15.90;99.90
28484;DHT22;15704;48.834;8.736;2023-05-10T12:32:02;16.00;99.90
28484;DHT22;15704;48.834;8.736;2023-05-10T12:34:34;16.10;99.90
28484;DHT22;15704;48.834;8.736;2023-05-10T12:37:02;16.30;99.90
28484;DHT22;15704;48.834;8.736;2023-05-10T12:39:43;16.70;99.90
28484;DHT22;15704;48.834;8.736;2023-05-10T12:42:10;16.50;99.90
28484;DHT22;15704;48.834;8.736;2023-05-10T12:44:37;16.50;99.90
28484;DHT22;15704;48.834;8.736;2023-05-10T12:47:04;16.30;99.90
28484;DHT22;15704;48.834;8.736;2023-05-10T12:49:30;16.10;99.90
28484;DHT22;15704;48.834;8.736;2023-05-10T12:51:57;16.20;99.90
28484;DHT22;15704;48.834;8.736;2023-05-10T12:54:24;16.20;99.90
28484;DHT22;15704;48.834;8.736;2023-05-10T12:56:51;16.20;99.90
28484;DHT22;15704;48.834;8.736;2023-05-10T12:59:17;16.40;99.90
28484;DHT22;15704;48.834;8.736;2023-05-10T13:01:44;16.40;99.90
28484;DHT22;15704;48.834;8.736;2023-05-10T13:04:11;16.70;99.90
28484;DHT22;15704;48.834;8.736;2023-05-10T13:06:38;16.90;99.90
28484;DHT22;15704;48.834;8.736;2023-05-10T13:09:05;16.90;99.90
28484;DHT22;15704;48.834;8.736;2023-05-10T13:11:31;16.90;99.90
28484;DHT22;15704;48.834;8.736;2023-05-10T13:13:58;16.90;99.90
28484;DHT22;15704;48.834;8.736;2023-05-10T13:16:25;17.10;99.90
28484;DHT22;15704;48.834;8.736;2023-05-10T13:18:52;17.00;99.90
28484;DHT22;15704;48.834;8.736;2023-05-10T13:21:19;17.10;99.90
28484;DHT22;15704;48.834;8.736;2023-05-10T13:23:45;16.80;99.90
28484;DHT22;15704;48.834;8.736;2023-05-10T13:26:13;16.70;99.90
28484;DHT22;15704;48.834;8.736;2023-05-10T13:28:40;17.00;99.90
28484;DHT22;15704;48.834;8.736;2023-05-10T13:31:07;17.70;99.90
28484;DHT22;15704;48.834;8.736;2023-05-10T13:33:34;17.60;99.90
28484;DHT22;15704;48.834;8.736;2023-05-10T13:36:01;17.70;99.90
28484;DHT22;15704;48.834;8.736;2023-05-10T13:38:28;17.70;99.90
28484;DHT22;15704;48.834;8.736;2023-05-10T13:40:54;17.60;99.90
28484;DHT22;15704;48.834;8.736;2023-05-10T13:43:21;17.20;99.90
28484;DHT22;15704;48.834;8.736;2023-05-10T13:45:48;16.70;99.90
28484;DHT22;15704;48.834;8.736;2023-05-10T13:48:15;16.50;99.90
28484;DHT22;15704;48.834;8.736;2023-05-10T13:50:42;16.70;99.90
28484;DHT22;15704;48.834;8.736;2023-05-10T13:53:09;16.50;99.90
28484;DHT22;15704;48.834;8.736;2023-05-10T13:55:35;16.30;99.90
28484;DHT22;15704;48.834;8.736;2023-05-10T13:58:02;16.40;99.90
28484;DHT22;15704;48.834;8.736;2023-05-10T14:00:29;16.70;99.90
28484;DHT22;15704;48.834;8.736;2023-05-10T14:02:56;16.80;99.90
28484;DHT22;15704;48.834;8.736;2023-05-10T14:05:23;16.80;99.90
28484;DHT22;15704;48.834;8.736;2023-05-10T14:07:52;17.20;99.90
28484;DHT22;15704;48.834;8.736;2023-05-10T14:10:19;17.30;99.90
28484;DHT22;15704;48.834;8.736;2023-05-10T14:12:46;17.30;99.90
28484;DHT22;15704;48.834;8.736;2023-05-10T14:15:13;16.90;99.90
28484;DHT22;15704;48.834;8.736;2023-05-10T14:17:40;17.40;99.90
28484;DHT22;15704;48.834;8.736;2023-05-10T14:20:07;17.40;99.90
28484;DHT22;15704;48.834;8.736;2023-05-10T14:22:34;17.10;99.90
28484;DHT22;15704;48.834;8.736;2023-05-10T14:25:01;17.30;99.90
28484;DHT22;15704;48.834;8.736;2023-05-10T14:27:28;17.10;99.90
28484;DHT22;15704;48.834;8.736;2023-05-10T14:29:55;16.90;99.90
28484;DHT22;15704;48.834;8.736;2023-05-10T14:32:22;17.10;99.90
28484;DHT22;15704;48.834;8.736;2023-05-10T14:34:48;17.50;99.90
28484;DHT22;15704;48.834;8.736;2023-05-10T14:37:16;17.70;99.90
28484;DHT22;15704;48.834;8.736;2023-05-10T14:39:42;18.00;99.90
28484;DHT22;15704;48.834;8.736;2023-05-10T14:42:09;17.90;99.90
28484;DHT22;15704;48.834;8.736;2023-05-10T14:44:39;17.90;99.90
28484;DHT22;15704;48.834;8.736;2023-05-10T14:47:06;17.40;99.90
28484;DHT22;15704;48.834;8.736;2023-05-10T14:49:34;17.10;99.90
28484;DHT22;15704;48.834;8.736;2023-05-10T14:52:00;16.90;99.90
28484;DHT22;15704;48.834;8.736;2023-05-10T14:54:27;16.70;99.90
28484;DHT22;15704;48.834;8.736;2023-05-10T14:56:54;16.90;99.90
28484;DHT22;15704;48.834;8.736;2023-05-10T14:59:20;16.80;99.90
28484;DHT22;15704;48.834;8.736;2023-05-10T15:01:47;17.40;99.90
28484;DHT22;15704;48.834;8.736;2023-05-10T15:04:15;17.20;99.90
28484;DHT22;15704;48.834;8.736;2023-05-10T15:06:43;17.00;99.90
28484;DHT22;15704;48.834;8.736;2023-05-10T15:09:10;17.10;99.90
28484;DHT22;15704;48.834;8.736;2023-05-10T15:11:36;17.30;99.90
28484;DHT22;15704;48.834;8.736;2023-05-10T15:14:03;17.30;99.90
28484;DHT22;15704;48.834;8.736;2023-05-10T15:16:30;17.50;99.90
28484;DHT22;15704;48.834;8.736;2023-05-10T15:19:01;17.40;99.90
28484;DHT22;15704;48.834;8.736;2023-05-10T15:21:28;17.50;99.90
28484;DHT22;15704;48.834;8.736;2023-05-10T15:23:55;17.00;99.90
28484;DHT22;15704;48.834;8.736;2023-05-10T15:26:22;17.10;99.90
28484;DHT22;15704;48.834;8.736;2023-05-10T15:28:48;16.90;99.90
28484;DHT22;15704;48.834;8.736;2023-05-10T15:31:15;16.90;99.90
28484;DHT22;15704;48.834;8.736;2023-05-10T15:33:42;17.00;99.90
28484;DHT22;15704;48.834;8.736;2023-05-10T15:36:08;16.80;99.90
28484;DHT22;15704;48.834;8.736;2023-05-10T15:38:35;16.70;99.90
28484;DHT22;15704;48.834;8.736;2023-05-10T15:41:03;16.60;99.90
28484;DHT22;15704;48.834;8.736;2023-05-10T15:43:30;16.40;99.90
28484;DHT22;15704;48.834;8.736;2023-05-10T15:45:57;16.50;99.90
28484;DHT22;15704;48.834;8.736;2023-05-10T15:48:24;16.50;99.90
28484;DHT22;15704;48.834;8.736;2023-05-10T15:50:50;16.50;99.90
28484;DHT22;15704;48.834;8.736;2023-05-10T15:53:17;16.10;99.90
28484;DHT22;15704;48.834;8.736;2023-05-10T15:55:44;15.90;99.90
28484;DHT22;15704;48.834;8.736;2023-05-10T15:58:10;15.50;99.90
28484;DHT22;15704;48.834;8.736;2023-05-10T16:00:37;15.30;99.90